sensor_id;sensor_type;location;lat;lon;timestamp;temperature;humidity
12438;DHT22;6283;51.330;12.374;2022-08-03T00:01:35;21.10;1.00
12438;DHT22;6283;51.330;12.374;2022-08-03T00:04:01;21.10;1.00
12438;DHT22;6283;51.330;12.374;2022-08-03T00:06:26;21.00;1.00
12438;DHT22;6283;51.330;12.374;2022-08-03T00:08:52;21.00;1.00
12438;DHT22;6283;51.330;12.374;2022-08-03T00:11:18;20.90;1.00
12438;DHT22;6283;51.330;12.374;2022-08-03T00:13:43;20.90;1.00
12438;DHT22;6283;51.330;12.374;2022-08-03T00:16:09;20.90;1.00
12438;DHT22;6283;51.330;12.374;2022-08-03T00:18:36;20.90;1.00
12438;DHT22;6283;51.330;12.374;2022-08-03T00:21:03;20.90;1.00
12438;DHT22;6283;51.330;12.374;2022-08-03T00:23:29;20.90;1.00
12438;DHT22;6283;51.330;12.374;2022-08-03T00:25:55;20.90;1.00
12438;DHT22;6283;51.330;12.374;2022-08-03T00:28:21;20.90;1.00
12438;DHT22;6283;51.330;12.374;2022-08-03T00:30:46;20.90;1.00
12438;DHT22;6283;51.330;12.374;2022-08-03T00:33:12;20.90;1.00
12438;DHT22;6283;51.330;12.374;2022-08-03T00:35:37;20.90;1.00
12438;DHT22;6283;51.330;12.374;2022-08-03T00:38:04;20.80;1.00
12438;DHT22;6283;51.330;12.374;2022-08-03T00:40:29;20.80;1.00
12438;DHT22;6283;51.330;12.374;2022-08-03T00:42:57;20.80;1.00
12438;DHT22;6283;51.330;12.374;2022-08-03T00:45:35;20.80;1.00
12438;DHT22;6283;51.330;12.374;2022-08-03T00:48:02;20.80;1.00
12438;DHT22;6283;51.330;12.374;2022-08-03T00:50:29;20.70;1.00
12438;DHT22;6283;51.330;12.374;2022-08-03T00:52:58;20.70;1.00
12438;DHT22;6283;51.330;12.374;2022-08-03T00:55:24;20.60;1.00
12438;DHT22;6283;51.330;12.374;2022-08-03T00:57:50;20.60;1.00
12438;DHT22;6283;51.330;12.374;2022-08-03T01:00:19;20.60;1.00
12438;DHT22;6283;51.330;12.374;2022-08-03T01:02:45;20.50;1.00
12438;DHT22;6283;51.330;12.374;2022-08-03T01:05:11;20.50;1.00
12438;DHT22;6283;51.330;12.374;2022-08-03T01:18:17;20.30;1.00
12438;DHT22;6283;51.330;12.374;2022-08-03T01:20:48;20.20;1.00
12438;DHT22;6283;51.330;12.374;2022-08-03T01:23:45;20.20;1.00
12438;DHT22;6283;51.330;12.374;2022-08-03T01:29:37;20.10;1.00
12438;DHT22;6283;51.330;12.374;2022-08-03T01:31:58;20.00;1.00
12438;DHT22;6283;51.330;12.374;2022-08-03T01:34:28;20.00;1.00
12438;DHT22;6283;51.330;12.374;2022-08-03T01:36:56;20.00;1.00
12438;DHT22;6283;51.330;12.374;2022-08-03T01:39:24;20.00;1.00
12438;DHT22;6283;51.330;12.374;2022-08-03T01:41:55;20.00;1.00
12438;DHT22;6283;51.330;12.374;2022-08-03T01:44:26;20.00;1.00
12438;DHT22;6283;51.330;12.374;2022-08-03T01:46:56;20.00;1.00
12438;DHT22;6283;51.330;12.374;2022-08-03T01:49:23;19.90;1.00
12438;DHT22;6283;51.330;12.374;2022-08-03T01:51:50;19.90;1.00
12438;DHT22;6283;51.330;12.374;2022-08-03T01:54:18;19.90;1.00
12438;DHT22;6283;51.330;12.374;2022-08-03T01:56:45;19.80;1.00
12438;DHT22;6283;51.330;12.374;2022-08-03T01:59:15;19.80;1.00
12438;DHT22;6283;51.330;12.374;2022-08-03T02:01:43;19.70;1.00
12438;DHT22;6283;51.330;12.374;2022-08-03T02:04:12;19.70;1.00
12438;DHT22;6283;51.330;12.374;2022-08-03T02:06:39;19.70;1.00
12438;DHT22;6283;51.330;12.374;2022-08-03T02:09:05;19.60;1.00
12438;DHT22;6283;51.330;12.374;2022-08-03T02:11:33;19.60;1.00
12438;DHT22;6283;51.330;12.374;2022-08-03T02:14:02;19.60;1.00
12438;DHT22;6283;51.330;12.374;2022-08-03T02:16:30;19.60;1.00
12438;DHT22;6283;51.330;12.374;2022-08-03T02:18:57;19.50;1.00
12438;DHT22;6283;51.330;12.374;2022-08-03T02:21:26;19.50;1.00
12438;DHT22;6283;51.330;12.374;2022-08-03T02:23:52;19.50;1.00
12438;DHT22;6283;51.330;12.374;2022-08-03T02:26:19;19.50;1.00
12438;DHT22;6283;51.330;12.374;2022-08-03T02:28:47;19.50;1.00
12438;DHT22;6283;51.330;12.374;2022-08-03T02:31:17;19.50;1.00
12438;DHT22;6283;51.330;12.374;2022-08-03T02:33:48;19.50;1.00
12438;DHT22;6283;51.330;12.374;2022-08-03T02:36:16;19.50;1.00
12438;DHT22;6283;51.330;12.374;2022-08-03T02:38:48;19.50;1.00
12438;DHT22;6283;51.330;12.374;2022-08-03T02:41:17;19.40;1.00
12438;DHT22;6283;51.330;12.374;2022-08-03T02:43:48;19.40;1.00
12438;DHT22;6283;51.330;12.374;2022-08-03T02:46:17;19.40;1.00
12438;DHT22;6283;51.330;12.374;2022-08-03T02:48:45;19.40;1.00
12438;DHT22;6283;51.330;12.374;2022-08-03T02:51:12;19.40;1.00
12438;DHT22;6283;51.330;12.374;2022-08-03T02:53:39;19.30;1.00
12438;DHT22;6283;51.330;12.374;2022-08-03T02:56:06;19.30;1.00
12438;DHT22;6283;51.330;12.374;2022-08-03T02:58:33;19.30;1.00
12438;DHT22;6283;51.330;12.374;2022-08-03T03:00:59;19.30;1.00
12438;DHT22;6283;51.330;12.374;2022-08-03T03:03:26;19.30;1.00
12438;DHT22;6283;51.330;12.374;2022-08-03T03:05:52;19.30;1.00
12438;DHT22;6283;51.330;12.374;2022-08-03T03:08:19;19.30;1.00
12438;DHT22;6283;51.330;12.374;2022-08-03T03:10:46;19.30;1.00
12438;DHT22;6283;51.330;12.374;2022-08-03T03:13:13;19.30;1.00
12438;DHT22;6283;51.330;12.374;2022-08-03T03:15:40;19.30;1.00
12438;DHT22;6283;51.330;12.374;2022-08-03T03:18:06;19.30;1.00
12438;DHT22;6283;51.330;12.374;2022-08-03T03:20:36;19.20;1.00
12438;DHT22;6283;51.330;12.374;2022-08-03T03:23:03;19.20;1.00
12438;DHT22;6283;51.330;12.374;2022-08-03T03:25:33;19.20;1.00
12438;DHT22;6283;51.330;12.374;2022-08-03T03:27:59;19.20;1.00
12438;DHT22;6283;51.330;12.374;2022-08-03T03:30:26;19.10;1.00
12438;DHT22;6283;51.330;12.374;2022-08-03T03:32:52;19.10;1.00
12438;DHT22;6283;51.330;12.374;2022-08-03T03:35:18;19.10;1.00
12438;DHT22;6283;51.330;12.374;2022-08-03T03:37:44;19.10;1.00
12438;DHT22;6283;51.330;12.374;2022-08-03T03:40:10;19.10;1.00
12438;DHT22;6283;51.330;12.374;2022-08-03T03:42:36;19.10;1.00
12438;DHT22;6283;51.330;12.374;2022-08-03T03:45:06;19.10;1.00
12438;DHT22;6283;51.330;12.374;2022-08-03T03:47:33;19.10;1.00
12438;DHT22;6283;51.330;12.374;2022-08-03T03:50:01;19.10;1.00
12438;DHT22;6283;51.330;12.374;2022-08-03T03:52:26;19.10;1.00
12438;DHT22;6283;51.330;12.374;2022-08-03T03:54:52;19.10;1.00
12438;DHT22;6283;51.330;12.374;2022-08-03T03:57:18;19.10;1.00
12438;DHT22;6283;51.330;12.374;2022-08-03T03:59:43;19.00;1.00
12438;DHT22;6283;51.330;12.374;2022-08-03T04:02:10;19.10;1.00
12438;DHT22;6283;51.330;12.374;2022-08-03T04:04:37;19.00;1.00
12438;DHT22;6283;51.330;12.374;2022-08-03T04:07:24;19.00;1.00
12438;DHT22;6283;51.330;12.374;2022-08-03T04:10:28;19.00;1.00
12438;DHT22;6283;51.330;12.374;2022-08-03T04:13:15;19.00;1.00
12438;DHT22;6283;51.330;12.374;2022-08-03T04:15:42;19.00;1.00
12438;DHT22;6283;51.330;12.374;2022-08-03T04:18:11;19.00;1.00
12438;DHT22;6283;51.330;12.374;2022-08-03T04:20:39;19.00;1.00
12438;DHT22;6283;51.330;12.374;2022-08-03T04:23:10;19.00;1.00
12438;DHT22;6283;51.330;12.374;2022-08-03T04:25:36;19.00;1.00
12438;DHT22;6283;51.330;12.374;2022-08-03T04:28:03;19.00;1.00
12438;DHT22;6283;51.330;12.374;2022-08-03T04:30:30;19.00;1.00
12438;DHT22;6283;51.330;12.374;2022-08-03T04:32:58;19.00;1.00
12438;DHT22;6283;51.330;12.374;2022-08-03T04:35:28;19.00;1.00
12438;DHT22;6283;51.330;12.374;2022-08-03T04:38:00;19.00;1.00
12438;DHT22;6283;51.330;12.374;2022-08-03T04:40:36;19.00;1.00
12438;DHT22;6283;51.330;12.374;2022-08-03T04:43:04;19.00;1.00
12438;DHT22;6283;51.330;12.374;2022-08-03T04:45:33;19.10;1.00
12438;DHT22;6283;51.330;12.374;2022-08-03T04:47:58;19.10;1.00
12438;DHT22;6283;51.330;12.374;2022-08-03T04:50:25;19.10;1.00
12438;DHT22;6283;51.330;12.374;2022-08-03T04:52:52;19.20;1.00
12438;DHT22;6283;51.330;12.374;2022-08-03T04:55:28;19.20;1.00
12438;DHT22;6283;51.330;12.374;2022-08-03T04:57:54;19.30;1.00
12438;DHT22;6283;51.330;12.374;2022-08-03T05:00:20;19.30;1.00
12438;DHT22;6283;51.330;12.374;2022-08-03T05:02:46;19.40;1.00
12438;DHT22;6283;51.330;12.374;2022-08-03T05:05:12;19.40;1.00
12438;DHT22;6283;51.330;12.374;2022-08-03T05:07:40;19.40;1.00
12438;DHT22;6283;51.330;12.374;2022-08-03T05:10:08;19.50;1.00
12438;DHT22;6283;51.330;12.374;2022-08-03T05:12:34;19.60;1.00
12438;DHT22;6283;51.330;12.374;2022-08-03T05:15:00;19.60;1.00
12438;DHT22;6283;51.330;12.374;2022-08-03T05:17:27;19.60;1.00
12438;DHT22;6283;51.330;12.374;2022-08-03T05:19:53;19.70;1.00
12438;DHT22;6283;51.330;12.374;2022-08-03T05:22:19;19.70;1.00
12438;DHT22;6283;51.330;12.374;2022-08-03T05:24:45;19.80;1.00
12438;DHT22;6283;51.330;12.374;2022-08-03T05:27:10;19.90;1.00
12438;DHT22;6283;51.330;12.374;2022-08-03T05:29:42;19.90;1.00
12438;DHT22;6283;51.330;12.374;2022-08-03T05:32:07;19.90;1.00
12438;DHT22;6283;51.330;12.374;2022-08-03T05:34:33;19.90;1.00
12438;DHT22;6283;51.330;12.374;2022-08-03T05:36:59;20.00;1.00
12438;DHT22;6283;51.330;12.374;2022-08-03T05:39:24;20.00;1.00
12438;DHT22;6283;51.330;12.374;2022-08-03T05:41:50;20.00;1.00
12438;DHT22;6283;51.330;12.374;2022-08-03T05:44:16;20.10;1.00
12438;DHT22;6283;51.330;12.374;2022-08-03T05:46:41;20.10;1.00
12438;DHT22;6283;51.330;12.374;2022-08-03T05:49:07;20.20;1.00
12438;DHT22;6283;51.330;12.374;2022-08-03T05:51:32;20.20;1.00
12438;DHT22;6283;51.330;12.374;2022-08-03T05:53:58;20.30;1.00
12438;DHT22;6283;51.330;12.374;2022-08-03T05:56:24;20.40;1.00
12438;DHT22;6283;51.330;12.374;2022-08-03T05:58:49;20.50;1.00
12438;DHT22;6283;51.330;12.374;2022-08-03T06:01:17;20.50;1.00
12438;DHT22;6283;51.330;12.374;2022-08-03T06:03:43;20.60;1.00
12438;DHT22;6283;51.330;12.374;2022-08-03T06:06:08;20.60;1.00
12438;DHT22;6283;51.330;12.374;2022-08-03T06:08:35;20.70;1.00
12438;DHT22;6283;51.330;12.374;2022-08-03T06:11:01;20.70;1.00
12438;DHT22;6283;51.330;12.374;2022-08-03T06:13:27;20.80;1.00
12438;DHT22;6283;51.330;12.374;2022-08-03T06:15:52;20.80;1.00
12438;DHT22;6283;51.330;12.374;2022-08-03T06:18:18;20.90;1.00
12438;DHT22;6283;51.330;12.374;2022-08-03T06:20:44;21.00;1.00
12438;DHT22;6283;51.330;12.374;2022-08-03T06:23:09;21.10;1.00
12438;DHT22;6283;51.330;12.374;2022-08-03T06:25:35;21.20;1.00
12438;DHT22;6283;51.330;12.374;2022-08-03T06:28:01;21.40;1.00
12438;DHT22;6283;51.330;12.374;2022-08-03T06:30:28;21.50;1.00
12438;DHT22;6283;51.330;12.374;2022-08-03T06:32:53;21.70;1.00
12438;DHT22;6283;51.330;12.374;2022-08-03T06:35:19;21.80;1.00
12438;DHT22;6283;51.330;12.374;2022-08-03T06:37:49;21.90;1.00
12438;DHT22;6283;51.330;12.374;2022-08-03T06:40:17;22.00;1.00
12438;DHT22;6283;51.330;12.374;2022-08-03T06:42:43;22.10;1.00
12438;DHT22;6283;51.330;12.374;2022-08-03T06:45:10;22.30;1.00
12438;DHT22;6283;51.330;12.374;2022-08-03T06:47:37;22.40;1.00
12438;DHT22;6283;51.330;12.374;2022-08-03T06:50:04;22.50;1.00
12438;DHT22;6283;51.330;12.374;2022-08-03T06:52:30;22.50;1.00
12438;DHT22;6283;51.330;12.374;2022-08-03T06:54:56;22.70;1.00
12438;DHT22;6283;51.330;12.374;2022-08-03T06:57:22;22.70;1.00
12438;DHT22;6283;51.330;12.374;2022-08-03T06:59:48;22.80;1.00
12438;DHT22;6283;51.330;12.374;2022-08-03T07:02:14;22.90;1.00
12438;DHT22;6283;51.330;12.374;2022-08-03T07:04:39;23.10;1.00
12438;DHT22;6283;51.330;12.374;2022-08-03T07:07:05;23.20;1.00
12438;DHT22;6283;51.330;12.374;2022-08-03T07:09:30;23.20;1.00
12438;DHT22;6283;51.330;12.374;2022-08-03T07:11:56;23.30;1.00
12438;DHT22;6283;51.330;12.374;2022-08-03T07:14:22;23.40;1.00
12438;DHT22;6283;51.330;12.374;2022-08-03T07:16:47;23.50;1.00
12438;DHT22;6283;51.330;12.374;2022-08-03T07:19:13;23.60;1.00
12438;DHT22;6283;51.330;12.374;2022-08-03T07:21:38;23.70;1.00
12438;DHT22;6283;51.330;12.374;2022-08-03T07:24:04;23.80;1.00
12438;DHT22;6283;51.330;12.374;2022-08-03T07:26:30;23.90;1.00
12438;DHT22;6283;51.330;12.374;2022-08-03T07:28:56;24.00;1.00
12438;DHT22;6283;51.330;12.374;2022-08-03T07:31:21;24.20;1.00
12438;DHT22;6283;51.330;12.374;2022-08-03T07:33:47;24.30;1.00
12438;DHT22;6283;51.330;12.374;2022-08-03T07:36:12;24.40;1.00
12438;DHT22;6283;51.330;12.374;2022-08-03T07:38:38;24.50;1.00
12438;DHT22;6283;51.330;12.374;2022-08-03T07:41:04;24.60;1.00
12438;DHT22;6283;51.330;12.374;2022-08-03T07:43:29;24.70;1.00
12438;DHT22;6283;51.330;12.374;2022-08-03T07:45:55;24.80;1.00
12438;DHT22;6283;51.330;12.374;2022-08-03T07:48:20;25.00;1.00
12438;DHT22;6283;51.330;12.374;2022-08-03T07:50:46;25.10;1.00
12438;DHT22;6283;51.330;12.374;2022-08-03T07:53:12;25.10;1.00
12438;DHT22;6283;51.330;12.374;2022-08-03T07:55:37;25.30;1.00
12438;DHT22;6283;51.330;12.374;2022-08-03T07:58:05;25.40;1.00
12438;DHT22;6283;51.330;12.374;2022-08-03T08:00:32;25.50;1.00
12438;DHT22;6283;51.330;12.374;2022-08-03T08:02:58;25.60;1.00
12438;DHT22;6283;51.330;12.374;2022-08-03T08:05:24;25.70;1.00
12438;DHT22;6283;51.330;12.374;2022-08-03T08:07:50;25.90;1.00
12438;DHT22;6283;51.330;12.374;2022-08-03T08:10:15;26.00;1.00
12438;DHT22;6283;51.330;12.374;2022-08-03T08:12:41;26.10;1.00
12438;DHT22;6283;51.330;12.374;2022-08-03T08:15:07;26.20;1.00
12438;DHT22;6283;51.330;12.374;2022-08-03T08:17:54;26.30;1.00
12438;DHT22;6283;51.330;12.374;2022-08-03T08:20:23;26.40;1.00
12438;DHT22;6283;51.330;12.374;2022-08-03T08:22:48;26.40;1.00
12438;DHT22;6283;51.330;12.374;2022-08-03T08:25:14;26.50;1.00
12438;DHT22;6283;51.330;12.374;2022-08-03T08:27:45;26.60;1.00
12438;DHT22;6283;51.330;12.374;2022-08-03T08:30:12;26.70;1.00
12438;DHT22;6283;51.330;12.374;2022-08-03T08:32:38;26.80;1.00
12438;DHT22;6283;51.330;12.374;2022-08-03T08:35:05;26.90;1.00
12438;DHT22;6283;51.330;12.374;2022-08-03T08:37:31;27.00;1.00
12438;DHT22;6283;51.330;12.374;2022-08-03T08:39:57;27.10;1.00
12438;DHT22;6283;51.330;12.374;2022-08-03T08:42:23;27.10;1.00
12438;DHT22;6283;51.330;12.374;2022-08-03T08:44:49;27.20;1.00
12438;DHT22;6283;51.330;12.374;2022-08-03T08:47:16;27.30;1.00
12438;DHT22;6283;51.330;12.374;2022-08-03T08:49:43;27.30;1.00
12438;DHT22;6283;51.330;12.374;2022-08-03T08:52:09;27.40;1.00
12438;DHT22;6283;51.330;12.374;2022-08-03T08:54:37;27.50;1.00
12438;DHT22;6283;51.330;12.374;2022-08-03T08:57:05;27.60;1.00
12438;DHT22;6283;51.330;12.374;2022-08-03T08:59:32;27.70;1.00
12438;DHT22;6283;51.330;12.374;2022-08-03T09:02:01;27.80;1.00
12438;DHT22;6283;51.330;12.374;2022-08-03T09:04:27;27.80;1.00
12438;DHT22;6283;51.330;12.374;2022-08-03T09:06:53;27.90;1.00
12438;DHT22;6283;51.330;12.374;2022-08-03T09:09:19;28.00;1.00
12438;DHT22;6283;51.330;12.374;2022-08-03T09:11:44;28.10;1.00
12438;DHT22;6283;51.330;12.374;2022-08-03T09:14:12;28.20;1.00
12438;DHT22;6283;51.330;12.374;2022-08-03T09:16:38;28.30;1.00
12438;DHT22;6283;51.330;12.374;2022-08-03T09:19:19;28.30;1.00
12438;DHT22;6283;51.330;12.374;2022-08-03T09:21:44;28.40;1.00
12438;DHT22;6283;51.330;12.374;2022-08-03T09:24:10;28.50;1.00
12438;DHT22;6283;51.330;12.374;2022-08-03T09:26:36;28.60;1.00
12438;DHT22;6283;51.330;12.374;2022-08-03T09:29:10;28.70;1.00
12438;DHT22;6283;51.330;12.374;2022-08-03T09:31:38;28.80;1.00
12438;DHT22;6283;51.330;12.374;2022-08-03T09:34:08;28.80;1.00
12438;DHT22;6283;51.330;12.374;2022-08-03T09:36:35;28.80;1.00
12438;DHT22;6283;51.330;12.374;2022-08-03T09:39:09;28.80;1.00
12438;DHT22;6283;51.330;12.374;2022-08-03T09:41:43;28.90;1.00
12438;DHT22;6283;51.330;12.374;2022-08-03T09:44:09;29.00;1.00
12438;DHT22;6283;51.330;12.374;2022-08-03T09:46:54;29.00;1.00
12438;DHT22;6283;51.330;12.374;2022-08-03T09:49:21;29.10;1.00
12438;DHT22;6283;51.330;12.374;2022-08-03T09:51:47;29.10;1.00
12438;DHT22;6283;51.330;12.374;2022-08-03T09:54:24;29.20;1.00
12438;DHT22;6283;51.330;12.374;2022-08-03T09:56:50;29.20;1.00
12438;DHT22;6283;51.330;12.374;2022-08-03T09:59:24;29.20;1.00
12438;DHT22;6283;51.330;12.374;2022-08-03T10:01:50;29.30;1.00
12438;DHT22;6283;51.330;12.374;2022-08-03T10:04:16;29.30;1.00
12438;DHT22;6283;51.330;12.374;2022-08-03T10:06:45;29.40;1.00
12438;DHT22;6283;51.330;12.374;2022-08-03T10:09:25;29.50;1.00
12438;DHT22;6283;51.330;12.374;2022-08-03T10:11:51;29.60;1.00
12438;DHT22;6283;51.330;12.374;2022-08-03T10:14:17;29.60;1.00
12438;DHT22;6283;51.330;12.374;2022-08-03T10:16:48;29.50;1.00
12438;DHT22;6283;51.330;12.374;2022-08-03T10:19:14;29.60;1.00
12438;DHT22;6283;51.330;12.374;2022-08-03T10:21:45;29.60;1.00
12438;DHT22;6283;51.330;12.374;2022-08-03T10:24:16;29.70;1.00
12438;DHT22;6283;51.330;12.374;2022-08-03T10:26:45;29.70;1.00
12438;DHT22;6283;51.330;12.374;2022-08-03T10:29:20;29.80;1.00
12438;DHT22;6283;51.330;12.374;2022-08-03T10:31:46;29.80;1.00
12438;DHT22;6283;51.330;12.374;2022-08-03T10:34:18;29.80;1.00
12438;DHT22;6283;51.330;12.374;2022-08-03T10:36:44;29.80;1.00
12438;DHT22;6283;51.330;12.374;2022-08-03T10:39:12;29.80;1.00
12438;DHT22;6283;51.330;12.374;2022-08-03T10:41:40;29.90;1.00
12438;DHT22;6283;51.330;12.374;2022-08-03T10:44:15;29.90;1.00
12438;DHT22;6283;51.330;12.374;2022-08-03T10:46:43;30.00;1.00
12438;DHT22;6283;51.330;12.374;2022-08-03T10:49:14;30.00;1.00
12438;DHT22;6283;51.330;12.374;2022-08-03T10:51:41;30.00;1.00
12438;DHT22;6283;51.330;12.374;2022-08-03T10:56:59;30.00;1.00
12438;DHT22;6283;51.330;12.374;2022-08-03T11:02:15;30.10;1.00
12438;DHT22;6283;51.330;12.374;2022-08-03T11:04:41;30.00;1.00
12438;DHT22;6283;51.330;12.374;2022-08-03T11:07:20;30.00;1.00
12438;DHT22;6283;51.330;12.374;2022-08-03T11:09:51;30.10;1.00
12438;DHT22;6283;51.330;12.374;2022-08-03T11:12:30;30.20;1.00
12438;DHT22;6283;51.330;12.374;2022-08-03T11:15:06;30.20;1.00
12438;DHT22;6283;51.330;12.374;2022-08-03T11:17:33;30.30;1.00
12438;DHT22;6283;51.330;12.374;2022-08-03T11:19:59;30.40;1.00
12438;DHT22;6283;51.330;12.374;2022-08-03T11:22:25;30.40;1.00
12438;DHT22;6283;51.330;12.374;2022-08-03T11:25:10;30.50;1.00
12438;DHT22;6283;51.330;12.374;2022-08-03T11:27:37;30.60;1.00
12438;DHT22;6283;51.330;12.374;2022-08-03T11:40:48;31.10;1.00
12438;DHT22;6283;51.330;12.374;2022-08-03T11:51:00;31.80;1.00
12438;DHT22;6283;51.330;12.374;2022-08-03T11:53:26;32.00;1.00
12438;DHT22;6283;51.330;12.374;2022-08-03T11:55:52;32.20;1.00
12438;DHT22;6283;51.330;12.374;2022-08-03T11:58:22;32.30;1.00
12438;DHT22;6283;51.330;12.374;2022-08-03T12:00:49;32.50;1.00
12438;DHT22;6283;51.330;12.374;2022-08-03T12:03:17;32.70;1.00
12438;DHT22;6283;51.330;12.374;2022-08-03T12:05:45;33.00;1.00
12438;DHT22;6283;51.330;12.374;2022-08-03T12:08:13;33.20;1.00
12438;DHT22;6283;51.330;12.374;2022-08-03T12:10:44;33.40;1.00
12438;DHT22;6283;51.330;12.374;2022-08-03T12:13:10;33.60;1.00
12438;DHT22;6283;51.330;12.374;2022-08-03T12:15:36;33.80;1.00
12438;DHT22;6283;51.330;12.374;2022-08-03T12:18:10;34.10;1.00
12438;DHT22;6283;51.330;12.374;2022-08-03T12:20:36;34.40;1.00
12438;DHT22;6283;51.330;12.374;2022-08-03T12:23:04;34.50;1.00
12438;DHT22;6283;51.330;12.374;2022-08-03T12:25:31;34.70;1.00
12438;DHT22;6283;51.330;12.374;2022-08-03T12:30:33;35.20;1.00
12438;DHT22;6283;51.330;12.374;2022-08-03T12:33:17;35.40;1.00
12438;DHT22;6283;51.330;12.374;2022-08-03T12:35:45;35.50;1.00
12438;DHT22;6283;51.330;12.374;2022-08-03T12:38:11;35.50;1.00
12438;DHT22;6283;51.330;12.374;2022-08-03T12:40:37;35.40;1.00
12438;DHT22;6283;51.330;12.374;2022-08-03T12:43:10;35.40;1.00
12438;DHT22;6283;51.330;12.374;2022-08-03T12:45:36;35.40;1.00
12438;DHT22;6283;51.330;12.374;2022-08-03T12:48:02;35.30;1.00
12438;DHT22;6283;51.330;12.374;2022-08-03T12:50:34;35.50;1.00
12438;DHT22;6283;51.330;12.374;2022-08-03T12:53:02;35.70;1.00
12438;DHT22;6283;51.330;12.374;2022-08-03T12:55:29;35.70;1.00
12438;DHT22;6283;51.330;12.374;2022-08-03T12:57:59;35.80;1.00
12438;DHT22;6283;51.330;12.374;2022-08-03T13:00:25;36.10;1.00
12438;DHT22;6283;51.330;12.374;2022-08-03T13:03:02;36.60;1.00
12438;DHT22;6283;51.330;12.374;2022-08-03T13:05:28;36.90;1.00
12438;DHT22;6283;51.330;12.374;2022-08-03T13:07:54;36.90;1.00
12438;DHT22;6283;51.330;12.374;2022-08-03T13:10:29;37.10;1.00
12438;DHT22;6283;51.330;12.374;2022-08-03T13:12:54;37.20;1.00
12438;DHT22;6283;51.330;12.374;2022-08-03T13:15:23;37.30;1.00
12438;DHT22;6283;51.330;12.374;2022-08-03T13:17:51;37.40;1.00
12438;DHT22;6283;51.330;12.374;2022-08-03T13:20:16;37.60;1.00
12438;DHT22;6283;51.330;12.374;2022-08-03T13:22:46;37.90;1.00
12438;DHT22;6283;51.330;12.374;2022-08-03T13:25:12;38.30;1.00
12438;DHT22;6283;51.330;12.374;2022-08-03T13:27:39;38.50;1.00
12438;DHT22;6283;51.330;12.374;2022-08-03T13:30:05;38.70;1.00
12438;DHT22;6283;51.330;12.374;2022-08-03T13:32:32;38.90;1.00
12438;DHT22;6283;51.330;12.374;2022-08-03T13:34:58;39.10;1.00
12438;DHT22;6283;51.330;12.374;2022-08-03T13:37:24;39.30;1.00
12438;DHT22;6283;51.330;12.374;2022-08-03T13:39:49;39.40;1.00
12438;DHT22;6283;51.330;12.374;2022-08-03T13:42:15;39.50;1.00
12438;DHT22;6283;51.330;12.374;2022-08-03T13:44:40;39.40;1.00
12438;DHT22;6283;51.330;12.374;2022-08-03T13:47:06;39.40;1.00
12438;DHT22;6283;51.330;12.374;2022-08-03T13:49:32;39.40;1.00
12438;DHT22;6283;51.330;12.374;2022-08-03T13:51:58;39.60;1.00
12438;DHT22;6283;51.330;12.374;2022-08-03T13:54:24;39.60;1.00
12438;DHT22;6283;51.330;12.374;2022-08-03T13:56:50;39.70;1.00
12438;DHT22;6283;51.330;12.374;2022-08-03T13:59:22;39.90;1.00
12438;DHT22;6283;51.330;12.374;2022-08-03T14:01:49;40.00;1.00
12438;DHT22;6283;51.330;12.374;2022-08-03T14:04:15;40.20;1.00
12438;DHT22;6283;51.330;12.374;2022-08-03T14:06:41;40.30;1.00
12438;DHT22;6283;51.330;12.374;2022-08-03T14:09:10;40.30;1.00
12438;DHT22;6283;51.330;12.374;2022-08-03T14:11:35;40.40;1.00
12438;DHT22;6283;51.330;12.374;2022-08-03T14:14:01;40.10;1.00
12438;DHT22;6283;51.330;12.374;2022-08-03T14:16:26;39.90;1.00
12438;DHT22;6283;51.330;12.374;2022-08-03T14:18:52;39.40;1.00
12438;DHT22;6283;51.330;12.374;2022-08-03T14:21:18;39.20;1.00
12438;DHT22;6283;51.330;12.374;2022-08-03T14:23:43;39.30;1.00
12438;DHT22;6283;51.330;12.374;2022-08-03T14:26:09;39.40;1.00
12438;DHT22;6283;51.330;12.374;2022-08-03T14:28:36;39.60;1.00
12438;DHT22;6283;51.330;12.374;2022-08-03T14:31:02;39.80;1.00
12438;DHT22;6283;51.330;12.374;2022-08-03T14:33:27;39.90;1.00
12438;DHT22;6283;51.330;12.374;2022-08-03T14:35:53;40.20;1.00
12438;DHT22;6283;51.330;12.374;2022-08-03T14:38:20;40.40;1.00
12438;DHT22;6283;51.330;12.374;2022-08-03T14:40:46;40.70;1.00
12438;DHT22;6283;51.330;12.374;2022-08-03T14:43:11;41.00;1.00
12438;DHT22;6283;51.330;12.374;2022-08-03T14:45:38;41.20;1.00
12438;DHT22;6283;51.330;12.374;2022-08-03T14:48:04;41.10;1.00
12438;DHT22;6283;51.330;12.374;2022-08-03T14:50:29;40.90;1.00
12438;DHT22;6283;51.330;12.374;2022-08-03T14:52:55;41.10;1.00
12438;DHT22;6283;51.330;12.374;2022-08-03T14:55:21;41.40;1.00
12438;DHT22;6283;51.330;12.374;2022-08-03T14:57:47;41.20;1.00
12438;DHT22;6283;51.330;12.374;2022-08-03T15:00:12;40.90;1.00
12438;DHT22;6283;51.330;12.374;2022-08-03T15:02:38;40.80;1.00
12438;DHT22;6283;51.330;12.374;2022-08-03T15:05:04;40.90;1.00
12438;DHT22;6283;51.330;12.374;2022-08-03T15:07:30;41.30;1.00
12438;DHT22;6283;51.330;12.374;2022-08-03T15:09:56;41.40;1.00
12438;DHT22;6283;51.330;12.374;2022-08-03T15:12:21;41.50;1.00
12438;DHT22;6283;51.330;12.374;2022-08-03T15:14:47;41.60;1.00
12438;DHT22;6283;51.330;12.374;2022-08-03T15:17:13;41.70;1.00
12438;DHT22;6283;51.330;12.374;2022-08-03T15:19:38;41.80;1.00
12438;DHT22;6283;51.330;12.374;2022-08-03T15:22:04;42.00;1.00
12438;DHT22;6283;51.330;12.374;2022-08-03T15:24:30;41.90;1.00
12438;DHT22;6283;51.330;12.374;2022-08-03T15:26:56;41.90;1.00
12438;DHT22;6283;51.330;12.374;2022-08-03T15:29:21;41.60;1.00
12438;DHT22;6283;51.330;12.374;2022-08-03T15:31:47;41.50;1.00
12438;DHT22;6283;51.330;12.374;2022-08-03T15:34:12;41.60;1.00
12438;DHT22;6283;51.330;12.374;2022-08-03T15:36:38;41.60;1.00
12438;DHT22;6283;51.330;12.374;2022-08-03T15:39:04;41.70;1.00
12438;DHT22;6283;51.330;12.374;2022-08-03T15:41:30;41.90;1.00
12438;DHT22;6283;51.330;12.374;2022-08-03T15:43:56;41.90;1.00
12438;DHT22;6283;51.330;12.374;2022-08-03T15:46:21;42.10;1.00
12438;DHT22;6283;51.330;12.374;2022-08-03T15:48:47;42.20;1.00
12438;DHT22;6283;51.330;12.374;2022-08-03T15:51:13;42.20;1.00
12438;DHT22;6283;51.330;12.374;2022-08-03T15:53:38;42.30;1.00
12438;DHT22;6283;51.330;12.374;2022-08-03T15:56:04;42.30;1.00
12438;DHT22;6283;51.330;12.374;2022-08-03T15:58:32;42.50;1.00
12438;DHT22;6283;51.330;12.374;2022-08-03T16:00:59;42.50;1.00
12438;DHT22;6283;51.330;12.374;2022-08-03T16:03:26;42.40;1.00
12438;DHT22;6283;51.330;12.374;2022-08-03T16:05:53;42.20;1.00
12438;DHT22;6283;51.330;12.374;2022-08-03T16:08:19;41.90;1.00
12438;DHT22;6283;51.330;12.374;2022-08-03T16:10:46;41.80;1.00
12438;DHT22;6283;51.330;12.374;2022-08-03T16:13:12;41.90;1.00
12438;DHT22;6283;51.330;12.374;2022-08-03T16:15:38;42.00;1.00
12438;DHT22;6283;51.330;12.374;2022-08-03T16:18:05;42.20;1.00
12438;DHT22;6283;51.330;12.374;2022-08-03T16:20:30;42.30;1.00
12438;DHT22;6283;51.330;12.374;2022-08-03T16:22:56;42.10;1.00
12438;DHT22;6283;51.330;12.374;2022-08-03T16:25:22;41.50;1.00
12438;DHT22;6283;51.330;12.374;2022-08-03T16:27:47;40.90;1.00